Terminal Aerodrome Forecast
Issued by NWS Sioux Falls, SD

Home | Current Version | Previous Version | Graphics & Text | Print | Product List | Glossary Off
Versions: 1 2 3 4 5 6 7 8 9 10 11 12 13 14 15 16 17 18 19 20 21 22 23 24 25 26 27 28

237
FTUS43 KFSD 082320
TAFSUX
TAF
KSUX 082320Z 0900/0924 31010KT P6SM SKC
     FM090900 30004KT P6SM FEW250
     FM091500 VRB03KT P6SM BKN050=

USA.gov is the U.S. government's official web portal to all federal, state and local government web resources and services.